KHOP/HOP METAR and TAF weather

Enter ICAO airport designator
Station Type Date Time Source
KHOP METAR 2019/04/25 07:56 UTC NOAA

KHOP 250756Z 00000KT 10SM BKN100 19/16 A2981 RMK AO2A SLP092 T01850157


Station Type Date Time Source
KHOP Decoded METAR 2019/04/25 07:56 UTC NOAA

Fort Campbell U. S. Army Airfield, KY, United States (KHOP) 36-40N 087-30W 174M
Apr 25, 2019 - 03:56 AM EDT / 2019.04.25 0756 UTC
Wind: Calm:0
Visibility: 10 mile(s):0
Sky conditions: mostly cloudy
Temperature: 65.3 F (18.5 C)
Dew Point: 60.3 F (15.7 C)
Relative Humidity: 83%
Pressure (altimeter): 29.81 in. Hg (1009 hPa)
ob: KHOP 250756Z 00000KT 10SM BKN100 19/16 A2981 RMK AO2A SLP092 T01850157
cycle: 8

Station Type Date Time Source
KHOP TAF 2019/04/25 08:10 UTC NOAA

TAF KHOP 250800Z 2508/2614 20006KT 9999 FEW020 SCT035 BKN055 621706 513702 QNH2973INS
BECMG 2516/2517 18010G15KT 9000 -SHRA BKN020 OVC025 611605 513403 QNH2967INS
TEMPO 2518/2522 26015G25KT 4800 -TSRA SCT010 BKN020CB OVC040
BECMG 2602/2603 20009KT 9999 NSW BKN010 OVC020 621202 523005 QNH2967INS
BECMG 2605/2606 30009KT 8000 BR BKN006 OVC010 QNH2966INS
BECMG 2611/2612 30010G20KT 9999 NSW SCT006 SCT010 510102 QNH2976INS
BECMG 2613/2614 32025G35KT 9999 SKC 520003 QNH2983INS TX23/2519Z TN16/2512Z

Example: see airport list